sensor_id;sensor_type;location;lat;lon;timestamp;P1;durP1;ratioP1;P2;durP2;ratioP2
7340;SDS011;6870;50.944;6.932;2022-12-07T00:01:40;2.63;;;1.80;;
7340;SDS011;6870;50.944;6.932;2022-12-07T00:04:11;2.37;;;2.17;;
7340;SDS011;6870;50.944;6.932;2022-12-07T00:06:42;9.00;;;3.00;;
7340;SDS011;6870;50.944;6.932;2022-12-07T00:09:13;6.87;;;1.97;;
7340;SDS011;6870;50.944;6.932;2022-12-07T00:11:44;3.77;;;1.90;;
7340;SDS011;6870;50.944;6.932;2022-12-07T00:14:14;7.87;;;2.20;;
7340;SDS011;6870;50.944;6.932;2022-12-07T00:16:43;2.50;;;1.80;;
7340;SDS011;6870;50.944;6.932;2022-12-07T00:19:12;5.83;;;2.13;;
7340;SDS011;6870;50.944;6.932;2022-12-07T00:21:41;2.90;;;2.17;;
7340;SDS011;6870;50.944;6.932;2022-12-07T00:24:10;4.10;;;1.87;;
7340;SDS011;6870;50.944;6.932;2022-12-07T00:26:40;4.03;;;1.70;;
7340;SDS011;6870;50.944;6.932;2022-12-07T00:29:13;3.30;;;1.47;;
7340;SDS011;6870;50.944;6.932;2022-12-07T00:31:44;5.93;;;1.83;;
7340;SDS011;6870;50.944;6.932;2022-12-07T00:34:13;5.10;;;2.73;;
7340;SDS011;6870;50.944;6.932;2022-12-07T00:36:44;4.27;;;2.20;;
7340;SDS011;6870;50.944;6.932;2022-12-07T00:39:12;6.57;;;2.07;;
7340;SDS011;6870;50.944;6.932;2022-12-07T00:41:40;3.07;;;1.97;;
7340;SDS011;6870;50.944;6.932;2022-12-07T00:44:08;2.33;;;1.93;;
7340;SDS011;6870;50.944;6.932;2022-12-07T00:46:38;3.83;;;2.43;;
7340;SDS011;6870;50.944;6.932;2022-12-07T00:49:06;4.40;;;2.17;;
7340;SDS011;6870;50.944;6.932;2022-12-07T00:51:34;3.40;;;1.90;;
7340;SDS011;6870;50.944;6.932;2022-12-07T00:54:02;2.40;;;1.90;;
7340;SDS011;6870;50.944;6.932;2022-12-07T00:56:31;2.67;;;1.70;;
7340;SDS011;6870;50.944;6.932;2022-12-07T00:58:59;3.17;;;1.87;;
7340;SDS011;6870;50.944;6.932;2022-12-07T01:01:30;4.57;;;2.03;;
7340;SDS011;6870;50.944;6.932;2022-12-07T01:04:02;6.17;;;2.07;;
7340;SDS011;6870;50.944;6.932;2022-12-07T01:06:31;5.03;;;2.20;;
7340;SDS011;6870;50.944;6.932;2022-12-07T01:09:00;2.40;;;1.37;;
7340;SDS011;6870;50.944;6.932;2022-12-07T01:11:28;7.43;;;2.10;;
7340;SDS011;6870;50.944;6.932;2022-12-07T01:13:58;5.57;;;1.80;;
7340;SDS011;6870;50.944;6.932;2022-12-07T01:16:28;3.10;;;2.17;;
7340;SDS011;6870;50.944;6.932;2022-12-07T01:18:59;2.50;;;1.70;;
7340;SDS011;6870;50.944;6.932;2022-12-07T01:21:31;6.77;;;2.30;;
7340;SDS011;6870;50.944;6.932;2022-12-07T01:24:04;4.90;;;1.90;;
7340;SDS011;6870;50.944;6.932;2022-12-07T01:26:36;5.80;;;1.73;;
7340;SDS011;6870;50.944;6.932;2022-12-07T01:29:04;2.43;;;1.60;;
7340;SDS011;6870;50.944;6.932;2022-12-07T01:31:32;3.70;;;2.03;;
7340;SDS011;6870;50.944;6.932;2022-12-07T01:34:02;5.00;;;1.97;;
7340;SDS011;6870;50.944;6.932;2022-12-07T01:36:31;7.20;;;2.23;;
7340;SDS011;6870;50.944;6.932;2022-12-07T01:39:02;4.63;;;2.60;;
7340;SDS011;6870;50.944;6.932;2022-12-07T01:41:34;4.07;;;2.20;;
7340;SDS011;6870;50.944;6.932;2022-12-07T01:44:14;3.50;;;1.83;;
7340;SDS011;6870;50.944;6.932;2022-12-07T01:46:46;2.67;;;2.00;;
7340;SDS011;6870;50.944;6.932;2022-12-07T01:49:18;5.90;;;2.63;;
7340;SDS011;6870;50.944;6.932;2022-12-07T01:51:55;4.33;;;1.97;;
7340;SDS011;6870;50.944;6.932;2022-12-07T01:54:30;3.33;;;1.73;;
7340;SDS011;6870;50.944;6.932;2022-12-07T01:57:00;3.27;;;2.13;;
7340;SDS011;6870;50.944;6.932;2022-12-07T01:59:30;5.07;;;2.50;;
7340;SDS011;6870;50.944;6.932;2022-12-07T02:01:58;4.80;;;1.90;;
7340;SDS011;6870;50.944;6.932;2022-12-07T02:04:30;3.00;;;2.20;;
7340;SDS011;6870;50.944;6.932;2022-12-07T02:06:59;6.73;;;1.90;;
7340;SDS011;6870;50.944;6.932;2022-12-07T02:09:27;2.20;;;1.40;;
7340;SDS011;6870;50.944;6.932;2022-12-07T02:11:56;2.83;;;1.67;;
7340;SDS011;6870;50.944;6.932;2022-12-07T02:14:24;4.37;;;2.07;;
7340;SDS011;6870;50.944;6.932;2022-12-07T02:16:56;5.10;;;1.87;;
7340;SDS011;6870;50.944;6.932;2022-12-07T02:19:55;3.80;;;1.50;;
7340;SDS011;6870;50.944;6.932;2022-12-07T02:22:45;2.57;;;1.60;;
7340;SDS011;6870;50.944;6.932;2022-12-07T02:25:55;1.87;;;1.37;;
7340;SDS011;6870;50.944;6.932;2022-12-07T02:28:56;3.53;;;1.80;;
7340;SDS011;6870;50.944;6.932;2022-12-07T02:31:38;4.07;;;1.80;;
7340;SDS011;6870;50.944;6.932;2022-12-07T02:34:15;1.80;;;1.53;;
7340;SDS011;6870;50.944;6.932;2022-12-07T02:36:52;4.80;;;1.67;;
7340;SDS011;6870;50.944;6.932;2022-12-07T02:39:28;3.10;;;1.70;;
7340;SDS011;6870;50.944;6.932;2022-12-07T02:42:06;4.57;;;1.83;;
7340;SDS011;6870;50.944;6.932;2022-12-07T02:44:42;7.60;;;2.10;;
7340;SDS011;6870;50.944;6.932;2022-12-07T02:47:13;3.07;;;1.37;;
7340;SDS011;6870;50.944;6.932;2022-12-07T02:49:44;1.87;;;1.40;;
7340;SDS011;6870;50.944;6.932;2022-12-07T02:52:13;2.03;;;1.77;;
7340;SDS011;6870;50.944;6.932;2022-12-07T02:54:42;2.23;;;1.50;;
7340;SDS011;6870;50.944;6.932;2022-12-07T02:57:17;6.07;;;1.90;;
7340;SDS011;6870;50.944;6.932;2022-12-07T03:00:04;2.77;;;1.73;;
7340;SDS011;6870;50.944;6.932;2022-12-07T03:02:39;2.93;;;1.67;;
7340;SDS011;6870;50.944;6.932;2022-12-07T03:05:23;3.20;;;1.80;;
7340;SDS011;6870;50.944;6.932;2022-12-07T03:08:25;2.30;;;1.30;;
7340;SDS011;6870;50.944;6.932;2022-12-07T03:11:04;1.90;;;1.40;;
7340;SDS011;6870;50.944;6.932;2022-12-07T03:13:37;3.53;;;1.60;;
7340;SDS011;6870;50.944;6.932;2022-12-07T03:16:15;3.10;;;1.97;;
7340;SDS011;6870;50.944;6.932;2022-12-07T03:18:46;4.33;;;2.00;;
7340;SDS011;6870;50.944;6.932;2022-12-07T03:21:21;4.50;;;1.83;;
7340;SDS011;6870;50.944;6.932;2022-12-07T03:23:55;4.50;;;1.70;;
7340;SDS011;6870;50.944;6.932;2022-12-07T03:26:28;3.37;;;1.97;;
7340;SDS011;6870;50.944;6.932;2022-12-07T03:29:02;2.90;;;1.57;;
7340;SDS011;6870;50.944;6.932;2022-12-07T03:31:38;1.93;;;1.27;;
7340;SDS011;6870;50.944;6.932;2022-12-07T03:34:10;3.27;;;1.60;;
7340;SDS011;6870;50.944;6.932;2022-12-07T03:36:44;9.20;;;2.10;;
7340;SDS011;6870;50.944;6.932;2022-12-07T03:39:21;3.50;;;2.37;;
7340;SDS011;6870;50.944;6.932;2022-12-07T03:41:54;1.50;;;1.30;;
7340;SDS011;6870;50.944;6.932;2022-12-07T03:44:23;1.30;;;1.13;;
7340;SDS011;6870;50.944;6.932;2022-12-07T03:46:55;2.20;;;1.57;;
7340;SDS011;6870;50.944;6.932;2022-12-07T03:49:30;3.03;;;1.43;;
7340;SDS011;6870;50.944;6.932;2022-12-07T03:52:08;2.77;;;1.93;;
7340;SDS011;6870;50.944;6.932;2022-12-07T03:54:47;3.53;;;1.87;;
7340;SDS011;6870;50.944;6.932;2022-12-07T03:57:24;2.80;;;1.47;;
7340;SDS011;6870;50.944;6.932;2022-12-07T03:59:54;4.33;;;1.80;;
7340;SDS011;6870;50.944;6.932;2022-12-07T04:02:26;4.90;;;1.83;;
7340;SDS011;6870;50.944;6.932;2022-12-07T04:04:55;3.37;;;2.00;;
7340;SDS011;6870;50.944;6.932;2022-12-07T04:07:23;3.13;;;1.83;;
7340;SDS011;6870;50.944;6.932;2022-12-07T04:09:52;2.77;;;1.53;;
7340;SDS011;6870;50.944;6.932;2022-12-07T04:12:21;1.80;;;1.57;;
7340;SDS011;6870;50.944;6.932;2022-12-07T04:14:49;6.03;;;1.73;;
7340;SDS011;6870;50.944;6.932;2022-12-07T04:17:17;5.10;;;1.73;;
7340;SDS011;6870;50.944;6.932;2022-12-07T04:19:47;4.63;;;1.80;;
7340;SDS011;6870;50.944;6.932;2022-12-07T04:22:15;2.70;;;1.40;;
7340;SDS011;6870;50.944;6.932;2022-12-07T04:24:43;9.93;;;1.93;;
7340;SDS011;6870;50.944;6.932;2022-12-07T04:27:11;1.97;;;1.47;;
7340;SDS011;6870;50.944;6.932;2022-12-07T04:29:39;2.20;;;1.40;;
7340;SDS011;6870;50.944;6.932;2022-12-07T04:32:07;5.73;;;2.40;;
7340;SDS011;6870;50.944;6.932;2022-12-07T04:34:36;4.77;;;1.80;;
7340;SDS011;6870;50.944;6.932;2022-12-07T04:37:05;4.63;;;2.20;;
7340;SDS011;6870;50.944;6.932;2022-12-07T04:39:33;4.27;;;1.53;;
7340;SDS011;6870;50.944;6.932;2022-12-07T04:42:02;1.70;;;1.60;;
7340;SDS011;6870;50.944;6.932;2022-12-07T04:44:30;3.23;;;2.00;;
7340;SDS011;6870;50.944;6.932;2022-12-07T04:46:59;4.73;;;1.63;;
7340;SDS011;6870;50.944;6.932;2022-12-07T04:49:27;8.70;;;1.67;;
7340;SDS011;6870;50.944;6.932;2022-12-07T04:51:55;2.10;;;1.50;;
7340;SDS011;6870;50.944;6.932;2022-12-07T04:54:24;1.47;;;1.00;;
7340;SDS011;6870;50.944;6.932;2022-12-07T04:56:52;3.07;;;1.63;;
7340;SDS011;6870;50.944;6.932;2022-12-07T04:59:20;3.00;;;1.53;;
7340;SDS011;6870;50.944;6.932;2022-12-07T05:01:48;2.10;;;1.50;;
7340;SDS011;6870;50.944;6.932;2022-12-07T05:04:17;5.13;;;1.40;;
7340;SDS011;6870;50.944;6.932;2022-12-07T05:06:45;3.07;;;1.57;;
7340;SDS011;6870;50.944;6.932;2022-12-07T05:09:13;5.13;;;1.30;;
7340;SDS011;6870;50.944;6.932;2022-12-07T05:11:43;4.77;;;1.60;;
7340;SDS011;6870;50.944;6.932;2022-12-07T05:14:12;4.33;;;1.87;;
7340;SDS011;6870;50.944;6.932;2022-12-07T05:16:43;2.13;;;1.30;;
7340;SDS011;6870;50.944;6.932;2022-12-07T05:19:13;1.40;;;1.13;;
7340;SDS011;6870;50.944;6.932;2022-12-07T05:21:42;3.50;;;2.00;;
7340;SDS011;6870;50.944;6.932;2022-12-07T05:24:11;2.57;;;1.43;;
7340;SDS011;6870;50.944;6.932;2022-12-07T05:26:40;3.57;;;1.37;;
7340;SDS011;6870;50.944;6.932;2022-12-07T05:29:11;5.30;;;1.70;;
7340;SDS011;6870;50.944;6.932;2022-12-07T05:31:40;2.20;;;1.50;;
7340;SDS011;6870;50.944;6.932;2022-12-07T05:34:08;3.47;;;1.50;;
7340;SDS011;6870;50.944;6.932;2022-12-07T05:36:37;3.77;;;1.10;;
7340;SDS011;6870;50.944;6.932;2022-12-07T05:39:06;3.93;;;1.47;;
7340;SDS011;6870;50.944;6.932;2022-12-07T05:41:34;1.83;;;1.20;;
7340;SDS011;6870;50.944;6.932;2022-12-07T05:44:21;1.83;;;1.37;;
7340;SDS011;6870;50.944;6.932;2022-12-07T05:46:49;2.30;;;1.57;;
7340;SDS011;6870;50.944;6.932;2022-12-07T05:49:17;2.40;;;2.20;;
7340;SDS011;6870;50.944;6.932;2022-12-07T05:51:45;3.97;;;1.50;;
7340;SDS011;6870;50.944;6.932;2022-12-07T05:54:14;3.63;;;1.73;;
7340;SDS011;6870;50.944;6.932;2022-12-07T05:56:42;3.93;;;1.33;;
7340;SDS011;6870;50.944;6.932;2022-12-07T05:59:10;1.70;;;1.57;;
7340;SDS011;6870;50.944;6.932;2022-12-07T06:01:52;4.33;;;1.40;;
7340;SDS011;6870;50.944;6.932;2022-12-07T06:04:24;2.70;;;1.60;;
7340;SDS011;6870;50.944;6.932;2022-12-07T06:06:54;5.40;;;1.50;;
7340;SDS011;6870;50.944;6.932;2022-12-07T06:09:23;2.07;;;1.30;;
7340;SDS011;6870;50.944;6.932;2022-12-07T06:11:53;4.73;;;1.93;;
7340;SDS011;6870;50.944;6.932;2022-12-07T06:14:40;3.50;;;1.30;;
7340;SDS011;6870;50.944;6.932;2022-12-07T06:17:10;3.17;;;1.57;;
7340;SDS011;6870;50.944;6.932;2022-12-07T06:19:40;3.63;;;1.50;;
7340;SDS011;6870;50.944;6.932;2022-12-07T06:22:08;1.97;;;1.60;;
7340;SDS011;6870;50.944;6.932;2022-12-07T06:24:38;2.40;;;1.27;;
7340;SDS011;6870;50.944;6.932;2022-12-07T06:27:06;2.20;;;1.40;;
7340;SDS011;6870;50.944;6.932;2022-12-07T06:29:35;3.67;;;1.43;;
7340;SDS011;6870;50.944;6.932;2022-12-07T06:32:03;2.80;;;1.40;;
7340;SDS011;6870;50.944;6.932;2022-12-07T06:34:34;4.20;;;2.00;;
7340;SDS011;6870;50.944;6.932;2022-12-07T06:37:02;4.00;;;1.30;;
7340;SDS011;6870;50.944;6.932;2022-12-07T06:39:30;2.10;;;1.40;;
7340;SDS011;6870;50.944;6.932;2022-12-07T06:41:58;4.77;;;1.83;;
7340;SDS011;6870;50.944;6.932;2022-12-07T06:44:27;3.63;;;1.20;;
7340;SDS011;6870;50.944;6.932;2022-12-07T06:46:55;3.00;;;1.33;;
7340;SDS011;6870;50.944;6.932;2022-12-07T06:49:45;8.03;;;1.30;;
7340;SDS011;6870;50.944;6.932;2022-12-07T06:52:13;2.60;;;1.13;;
7340;SDS011;6870;50.944;6.932;2022-12-07T06:54:41;4.93;;;1.20;;
7340;SDS011;6870;50.944;6.932;2022-12-07T06:57:09;5.20;;;1.60;;
7340;SDS011;6870;50.944;6.932;2022-12-07T06:59:37;2.97;;;1.27;;
7340;SDS011;6870;50.944;6.932;2022-12-07T07:02:05;5.03;;;1.63;;
7340;SDS011;6870;50.944;6.932;2022-12-07T07:04:34;3.90;;;1.53;;
7340;SDS011;6870;50.944;6.932;2022-12-07T07:07:04;3.60;;;1.47;;
7340;SDS011;6870;50.944;6.932;2022-12-07T07:09:32;2.30;;;1.43;;
7340;SDS011;6870;50.944;6.932;2022-12-07T07:12:00;2.20;;;1.70;;
7340;SDS011;6870;50.944;6.932;2022-12-07T07:14:29;1.67;;;1.10;;
7340;SDS011;6870;50.944;6.932;2022-12-07T07:16:57;3.27;;;1.10;;
7340;SDS011;6870;50.944;6.932;2022-12-07T07:19:25;2.03;;;1.40;;
7340;SDS011;6870;50.944;6.932;2022-12-07T07:21:53;3.07;;;1.50;;
7340;SDS011;6870;50.944;6.932;2022-12-07T07:24:22;2.17;;;1.43;;
7340;SDS011;6870;50.944;6.932;2022-12-07T07:26:50;2.43;;;1.00;;
7340;SDS011;6870;50.944;6.932;2022-12-07T07:29:18;1.93;;;1.20;;
7340;SDS011;6870;50.944;6.932;2022-12-07T07:31:47;6.33;;;1.77;;
7340;SDS011;6870;50.944;6.932;2022-12-07T07:34:15;2.50;;;1.23;;
7340;SDS011;6870;50.944;6.932;2022-12-07T07:36:43;4.33;;;1.63;;
7340;SDS011;6870;50.944;6.932;2022-12-07T07:39:12;3.70;;;1.57;;
7340;SDS011;6870;50.944;6.932;2022-12-07T07:41:41;2.53;;;1.33;;
7340;SDS011;6870;50.944;6.932;2022-12-07T07:44:10;1.90;;;1.30;;
7340;SDS011;6870;50.944;6.932;2022-12-07T07:46:38;2.77;;;1.60;;
7340;SDS011;6870;50.944;6.932;2022-12-07T07:49:06;5.37;;;1.80;;
7340;SDS011;6870;50.944;6.932;2022-12-07T07:51:36;7.13;;;1.67;;
7340;SDS011;6870;50.944;6.932;2022-12-07T07:54:04;3.80;;;1.73;;
7340;SDS011;6870;50.944;6.932;2022-12-07T07:56:33;2.40;;;1.90;;
7340;SDS011;6870;50.944;6.932;2022-12-07T07:59:02;3.67;;;1.70;;
7340;SDS011;6870;50.944;6.932;2022-12-07T08:01:30;2.10;;;1.53;;
7340;SDS011;6870;50.944;6.932;2022-12-07T08:03:59;5.60;;;1.60;;
7340;SDS011;6870;50.944;6.932;2022-12-07T08:06:28;4.80;;;1.77;;
7340;SDS011;6870;50.944;6.932;2022-12-07T08:09:00;6.20;;;1.87;;
7340;SDS011;6870;50.944;6.932;2022-12-07T08:14:43;3.30;;;1.20;;
7340;SDS011;6870;50.944;6.932;2022-12-07T08:17:27;3.80;;;1.47;;
7340;SDS011;6870;50.944;6.932;2022-12-07T08:20:08;5.03;;;1.60;;
7340;SDS011;6870;50.944;6.932;2022-12-07T08:22:37;4.10;;;2.00;;
7340;SDS011;6870;50.944;6.932;2022-12-07T08:25:06;2.67;;;2.17;;
7340;SDS011;6870;50.944;6.932;2022-12-07T08:27:35;3.87;;;2.20;;
7340;SDS011;6870;50.944;6.932;2022-12-07T08:30:06;5.27;;;1.60;;
7340;SDS011;6870;50.944;6.932;2022-12-07T08:32:35;3.50;;;1.60;;
7340;SDS011;6870;50.944;6.932;2022-12-07T08:35:05;1.40;;;1.23;;
7340;SDS011;6870;50.944;6.932;2022-12-07T08:37:34;5.40;;;1.87;;
7340;SDS011;6870;50.944;6.932;2022-12-07T08:40:03;2.90;;;1.07;;
7340;SDS011;6870;50.944;6.932;2022-12-07T08:42:41;3.80;;;1.90;;
7340;SDS011;6870;50.944;6.932;2022-12-07T08:45:12;5.03;;;1.80;;
7340;SDS011;6870;50.944;6.932;2022-12-07T08:47:49;5.30;;;2.37;;
7340;SDS011;6870;50.944;6.932;2022-12-07T08:50:19;1.90;;;1.70;;
7340;SDS011;6870;50.944;6.932;2022-12-07T08:52:49;4.17;;;2.07;;
7340;SDS011;6870;50.944;6.932;2022-12-07T08:55:20;3.90;;;1.87;;
7340;SDS011;6870;50.944;6.932;2022-12-07T08:57:49;5.70;;;1.87;;
7340;SDS011;6870;50.944;6.932;2022-12-07T09:00:19;3.10;;;2.33;;
7340;SDS011;6870;50.944;6.932;2022-12-07T09:02:47;4.00;;;2.60;;
7340;SDS011;6870;50.944;6.932;2022-12-07T09:05:15;6.33;;;2.37;;
7340;SDS011;6870;50.944;6.932;2022-12-07T09:07:44;3.40;;;2.80;;
7340;SDS011;6870;50.944;6.932;2022-12-07T09:10:18;5.27;;;3.20;;
7340;SDS011;6870;50.944;6.932;2022-12-07T09:12:46;9.80;;;3.57;;
7340;SDS011;6870;50.944;6.932;2022-12-07T09:15:14;8.57;;;3.90;;
7340;SDS011;6870;50.944;6.932;2022-12-07T09:17:44;8.33;;;3.10;;
7340;SDS011;6870;50.944;6.932;2022-12-07T09:20:12;2.80;;;2.53;;
7340;SDS011;6870;50.944;6.932;2022-12-07T09:22:40;3.20;;;2.50;;
7340;SDS011;6870;50.944;6.932;2022-12-07T09:25:08;4.67;;;3.33;;
7340;SDS011;6870;50.944;6.932;2022-12-07T09:27:36;3.70;;;2.50;;
7340;SDS011;6870;50.944;6.932;2022-12-07T09:30:05;5.10;;;2.80;;
7340;SDS011;6870;50.944;6.932;2022-12-07T09:32:34;8.23;;;3.57;;
7340;SDS011;6870;50.944;6.932;2022-12-07T09:35:04;6.50;;;3.27;;
7340;SDS011;6870;50.944;6.932;2022-12-07T09:37:33;7.87;;;3.00;;
7340;SDS011;6870;50.944;6.932;2022-12-07T09:40:02;4.25;;;3.65;;
7340;SDS011;6870;50.944;6.932;2022-12-07T09:42:34;15.07;;;8.23;;
7340;SDS011;6870;50.944;6.932;2022-12-07T09:45:06;9.40;;;4.47;;
7340;SDS011;6870;50.944;6.932;2022-12-07T09:47:39;6.50;;;3.70;;
7340;SDS011;6870;50.944;6.932;2022-12-07T09:50:11;7.20;;;4.63;;
7340;SDS011;6870;50.944;6.932;2022-12-07T09:52:43;5.90;;;3.93;;
7340;SDS011;6870;50.944;6.932;2022-12-07T09:55:14;5.90;;;3.57;;
7340;SDS011;6870;50.944;6.932;2022-12-07T09:57:47;9.23;;;4.23;;
7340;SDS011;6870;50.944;6.932;2022-12-07T10:00:18;8.83;;;3.30;;
7340;SDS011;6870;50.944;6.932;2022-12-07T10:02:50;6.67;;;3.17;;
7340;SDS011;6870;50.944;6.932;2022-12-07T10:05:24;4.70;;;3.53;;
7340;SDS011;6870;50.944;6.932;2022-12-07T10:07:55;4.50;;;2.90;;
7340;SDS011;6870;50.944;6.932;2022-12-07T10:10:24;6.13;;;3.60;;
7340;SDS011;6870;50.944;6.932;2022-12-07T10:13:01;8.57;;;2.90;;
7340;SDS011;6870;50.944;6.932;2022-12-07T10:15:42;2.90;;;2.60;;
7340;SDS011;6870;50.944;6.932;2022-12-07T10:21:13;5.13;;;2.33;;
7340;SDS011;6870;50.944;6.932;2022-12-07T10:23:58;4.00;;;2.37;;
7340;SDS011;6870;50.944;6.932;2022-12-07T10:26:32;3.43;;;3.07;;
7340;SDS011;6870;50.944;6.932;2022-12-07T10:29:04;3.33;;;2.13;;
7340;SDS011;6870;50.944;6.932;2022-12-07T10:31:43;9.10;;;2.90;;
7340;SDS011;6870;50.944;6.932;2022-12-07T10:34:15;12.10;;;2.60;;
7340;SDS011;6870;50.944;6.932;2022-12-07T10:36:52;4.30;;;2.63;;
7340;SDS011;6870;50.944;6.932;2022-12-07T10:39:21;3.30;;;2.20;;
7340;SDS011;6870;50.944;6.932;2022-12-07T10:41:54;7.30;;;2.60;;
7340;SDS011;6870;50.944;6.932;2022-12-07T10:44:24;3.67;;;2.40;;
7340;SDS011;6870;50.944;6.932;2022-12-07T10:47:00;4.67;;;2.10;;
7340;SDS011;6870;50.944;6.932;2022-12-07T10:53:05;4.00;;;2.20;;
7340;SDS011;6870;50.944;6.932;2022-12-07T10:59:02;2.70;;;1.97;;
7340;SDS011;6870;50.944;6.932;2022-12-07T11:01:49;2.73;;;2.00;;
7340;SDS011;6870;50.944;6.932;2022-12-07T11:04:27;3.70;;;2.70;;
7340;SDS011;6870;50.944;6.932;2022-12-07T11:07:05;3.23;;;1.70;;
7340;SDS011;6870;50.944;6.932;2022-12-07T11:09:47;4.50;;;2.20;;
7340;SDS011;6870;50.944;6.932;2022-12-07T11:12:38;2.40;;;2.03;;
7340;SDS011;6870;50.944;6.932;2022-12-07T11:15:27;4.70;;;2.60;;
7340;SDS011;6870;50.944;6.932;2022-12-07T11:18:02;3.23;;;2.17;;
7340;SDS011;6870;50.944;6.932;2022-12-07T11:20:39;4.00;;;1.80;;
7340;SDS011;6870;50.944;6.932;2022-12-07T11:23:13;4.90;;;2.30;;
7340;SDS011;6870;50.944;6.932;2022-12-07T11:25:53;4.00;;;2.77;;
7340;SDS011;6870;50.944;6.932;2022-12-07T11:28:38;3.70;;;2.90;;
7340;SDS011;6870;50.944;6.932;2022-12-07T11:31:24;3.40;;;2.60;;
7340;SDS011;6870;50.944;6.932;2022-12-07T11:34:04;3.53;;;3.23;;
7340;SDS011;6870;50.944;6.932;2022-12-07T11:36:44;4.10;;;3.80;;
7340;SDS011;6870;50.944;6.932;2022-12-07T11:39:19;4.50;;;4.10;;
7340;SDS011;6870;50.944;6.932;2022-12-07T11:41:57;5.97;;;5.47;;
7340;SDS011;6870;50.944;6.932;2022-12-07T11:44:33;8.40;;;5.97;;
7340;SDS011;6870;50.944;6.932;2022-12-07T11:47:07;6.40;;;5.90;;
7340;SDS011;6870;50.944;6.932;2022-12-07T11:49:41;9.20;;;8.40;;
7340;SDS011;6870;50.944;6.932;2022-12-07T11:52:15;10.77;;;9.97;;
7340;SDS011;6870;50.944;6.932;2022-12-07T11:54:50;11.97;;;11.07;;
7340;SDS011;6870;50.944;6.932;2022-12-07T11:57:22;12.70;;;11.60;;
7340;SDS011;6870;50.944;6.932;2022-12-07T11:59:56;13.73;;;12.70;;
7340;SDS011;6870;50.944;6.932;2022-12-07T12:02:32;14.57;;;13.57;;
7340;SDS011;6870;50.944;6.932;2022-12-07T12:05:12;15.00;;;13.93;;
7340;SDS011;6870;50.944;6.932;2022-12-07T12:07:44;16.17;;;14.90;;
7340;SDS011;6870;50.944;6.932;2022-12-07T12:10:38;14.70;;;13.40;;
7340;SDS011;6870;50.944;6.932;2022-12-07T12:13:24;13.63;;;12.73;;
7340;SDS011;6870;50.944;6.932;2022-12-07T12:16:54;13.40;;;12.40;;
7340;SDS011;6870;50.944;6.932;2022-12-07T12:19:57;11.07;;;10.27;;
7340;SDS011;6870;50.944;6.932;2022-12-07T12:22:32;11.13;;;10.43;;
7340;SDS011;6870;50.944;6.932;2022-12-07T12:25:05;10.97;;;10.00;;
7340;SDS011;6870;50.944;6.932;2022-12-07T12:27:49;9.90;;;9.23;;
7340;SDS011;6870;50.944;6.932;2022-12-07T12:30:26;10.27;;;9.27;;
7340;SDS011;6870;50.944;6.932;2022-12-07T12:33:01;9.47;;;8.77;;
7340;SDS011;6870;50.944;6.932;2022-12-07T12:35:41;8.70;;;8.10;;
7340;SDS011;6870;50.944;6.932;2022-12-07T12:41:01;11.23;;;9.43;;
7340;SDS011;6870;50.944;6.932;2022-12-07T12:43:49;9.83;;;8.93;;
7340;SDS011;6870;50.944;6.932;2022-12-07T12:52:48;11.27;;;8.30;;
7340;SDS011;6870;50.944;6.932;2022-12-07T13:01:55;10.30;;;8.33;;
7340;SDS011;6870;50.944;6.932;2022-12-07T13:10:25;7.73;;;6.93;;
7340;SDS011;6870;50.944;6.932;2022-12-07T13:13:30;8.20;;;7.10;;
7340;SDS011;6870;50.944;6.932;2022-12-07T13:22:35;8.80;;;6.53;;
7340;SDS011;6870;50.944;6.932;2022-12-07T13:25:11;6.70;;;6.03;;
7340;SDS011;6870;50.944;6.932;2022-12-07T13:27:48;8.03;;;6.50;;
7340;SDS011;6870;50.944;6.932;2022-12-07T13:30:24;8.70;;;6.77;;
7340;SDS011;6870;50.944;6.932;2022-12-07T13:32:55;6.87;;;6.17;;
7340;SDS011;6870;50.944;6.932;2022-12-07T13:35:31;7.60;;;5.70;;
7340;SDS011;6870;50.944;6.932;2022-12-07T13:38:04;10.50;;;6.93;;
7340;SDS011;6870;50.944;6.932;2022-12-07T13:41:02;7.60;;;6.90;;
7340;SDS011;6870;50.944;6.932;2022-12-07T13:43:43;7.30;;;6.50;;
7340;SDS011;6870;50.944;6.932;2022-12-07T13:46:13;6.47;;;5.57;;
7340;SDS011;6870;50.944;6.932;2022-12-07T13:48:44;7.80;;;5.63;;
7340;SDS011;6870;50.944;6.932;2022-12-07T13:51:18;6.10;;;5.50;;
7340;SDS011;6870;50.944;6.932;2022-12-07T13:53:50;5.47;;;5.00;;
7340;SDS011;6870;50.944;6.932;2022-12-07T13:56:21;6.73;;;5.60;;
7340;SDS011;6870;50.944;6.932;2022-12-07T13:58:53;7.80;;;6.10;;
7340;SDS011;6870;50.944;6.932;2022-12-07T14:01:22;6.70;;;4.63;;
7340;SDS011;6870;50.944;6.932;2022-12-07T14:03:52;5.67;;;5.17;;
7340;SDS011;6870;50.944;6.932;2022-12-07T14:06:23;8.73;;;5.40;;
7340;SDS011;6870;50.944;6.932;2022-12-07T14:09:06;7.03;;;5.63;;
7340;SDS011;6870;50.944;6.932;2022-12-07T14:11:35;7.47;;;5.93;;
7340;SDS011;6870;50.944;6.932;2022-12-07T14:14:05;5.67;;;4.87;;
7340;SDS011;6870;50.944;6.932;2022-12-07T14:16:38;6.90;;;5.50;;
7340;SDS011;6870;50.944;6.932;2022-12-07T14:19:39;7.03;;;4.67;;
7340;SDS011;6870;50.944;6.932;2022-12-07T14:22:26;8.37;;;5.63;;
7340;SDS011;6870;50.944;6.932;2022-12-07T14:24:59;8.20;;;4.80;;
7340;SDS011;6870;50.944;6.932;2022-12-07T14:27:31;8.40;;;5.00;;
7340;SDS011;6870;50.944;6.932;2022-12-07T14:30:02;5.53;;;4.10;;
7340;SDS011;6870;50.944;6.932;2022-12-07T14:32:34;4.97;;;4.10;;
7340;SDS011;6870;50.944;6.932;2022-12-07T14:35:08;7.70;;;4.50;;
7340;SDS011;6870;50.944;6.932;2022-12-07T14:37:43;5.47;;;4.30;;
7340;SDS011;6870;50.944;6.932;2022-12-07T14:40:16;6.23;;;4.53;;
7340;SDS011;6870;50.944;6.932;2022-12-07T14:42:49;5.87;;;4.20;;
7340;SDS011;6870;50.944;6.932;2022-12-07T14:45:21;4.40;;;4.00;;
7340;SDS011;6870;50.944;6.932;2022-12-07T14:47:50;5.13;;;3.50;;
7340;SDS011;6870;50.944;6.932;2022-12-07T14:50:39;6.43;;;4.20;;
7340;SDS011;6870;50.944;6.932;2022-12-07T14:53:35;4.70;;;4.20;;
7340;SDS011;6870;50.944;6.932;2022-12-07T14:56:08;5.63;;;4.03;;
7340;SDS011;6870;50.944;6.932;2022-12-07T14:58:36;5.40;;;3.90;;
7340;SDS011;6870;50.944;6.932;2022-12-07T15:01:04;9.67;;;4.07;;
7340;SDS011;6870;50.944;6.932;2022-12-07T15:03:32;5.63;;;4.10;;
7340;SDS011;6870;50.944;6.932;2022-12-07T15:06:03;5.80;;;3.73;;
7340;SDS011;6870;50.944;6.932;2022-12-07T15:08:33;3.93;;;3.53;;
7340;SDS011;6870;50.944;6.932;2022-12-07T15:11:02;4.67;;;3.90;;
7340;SDS011;6870;50.944;6.932;2022-12-07T15:13:30;4.77;;;4.00;;
7340;SDS011;6870;50.944;6.932;2022-12-07T15:16:18;5.90;;;4.00;;
7340;SDS011;6870;50.944;6.932;2022-12-07T15:18:48;5.90;;;3.70;;
7340;SDS011;6870;50.944;6.932;2022-12-07T15:21:36;5.90;;;4.00;;
7340;SDS011;6870;50.944;6.932;2022-12-07T15:24:05;3.50;;;3.20;;
7340;SDS011;6870;50.944;6.932;2022-12-07T15:26:35;3.93;;;3.30;;
7340;SDS011;6870;50.944;6.932;2022-12-07T15:29:04;6.10;;;4.20;;
7340;SDS011;6870;50.944;6.932;2022-12-07T15:31:32;4.40;;;3.40;;
7340;SDS011;6870;50.944;6.932;2022-12-07T15:34:21;4.50;;;3.83;;
7340;SDS011;6870;50.944;6.932;2022-12-07T15:36:51;4.20;;;3.50;;
7340;SDS011;6870;50.944;6.932;2022-12-07T15:39:21;5.40;;;3.80;;
7340;SDS011;6870;50.944;6.932;2022-12-07T15:41:49;4.27;;;3.50;;
7340;SDS011;6870;50.944;6.932;2022-12-07T15:44:17;5.87;;;3.80;;
7340;SDS011;6870;50.944;6.932;2022-12-07T15:47:03;5.30;;;3.73;;
7340;SDS011;6870;50.944;6.932;2022-12-07T15:49:32;6.90;;;4.00;;
7340;SDS011;6870;50.944;6.932;2022-12-07T15:52:00;4.23;;;3.83;;
7340;SDS011;6870;50.944;6.932;2022-12-07T15:54:29;3.73;;;3.40;;
7340;SDS011;6870;50.944;6.932;2022-12-07T15:56:59;6.10;;;3.80;;
7340;SDS011;6870;50.944;6.932;2022-12-07T15:59:27;4.50;;;3.60;;
7340;SDS011;6870;50.944;6.932;2022-12-07T16:01:56;4.10;;;2.63;;
7340;SDS011;6870;50.944;6.932;2022-12-07T16:04:26;5.00;;;3.23;;
7340;SDS011;6870;50.944;6.932;2022-12-07T16:06:55;5.13;;;4.03;;
7340;SDS011;6870;50.944;6.932;2022-12-07T16:09:23;4.53;;;3.60;;
7340;SDS011;6870;50.944;6.932;2022-12-07T16:11:53;3.27;;;2.97;;
7340;SDS011;6870;50.944;6.932;2022-12-07T16:14:21;3.77;;;3.30;;
7340;SDS011;6870;50.944;6.932;2022-12-07T16:16:49;3.60;;;3.17;;
7340;SDS011;6870;50.944;6.932;2022-12-07T16:19:17;5.97;;;3.70;;
7340;SDS011;6870;50.944;6.932;2022-12-07T16:21:45;3.77;;;3.47;;
7340;SDS011;6870;50.944;6.932;2022-12-07T16:24:13;4.40;;;3.47;;
7340;SDS011;6870;50.944;6.932;2022-12-07T16:26:42;4.93;;;3.17;;
7340;SDS011;6870;50.944;6.932;2022-12-07T16:29:17;5.57;;;3.57;;
7340;SDS011;6870;50.944;6.932;2022-12-07T16:31:47;4.33;;;3.20;;